Time;durP1;ratioP1;P1;durP2;ratioP2;P2;SDS_P1;SDS_P2;PMS_P1;PMS_P2;Temp;Humidity;BMP_temperature;BMP_pressure;BME280_temperature;BME280_humidity;BME280_pressure;Samples;Min_cycle;Max_cycle;Signal;HPM_P1;HPM_P2
2023/01/15 00:02:06;;;;;;;23.77;15.50;;;23.40;99.90;;;;;;4936461;29;20058;-55
2023/01/15 00:04:31;;;;;;;24.45;16.05;;;23.30;99.90;;;;;;4952919;29;20555;-51
2023/01/15 00:06:57;;;;;;;21.38;14.25;;;23.30;99.90;;;;;;4956951;28;20066;-49
2023/01/15 00:09:23;;;;;;;26.38;16.38;;;23.30;99.90;;;;;;4956678;29;20055;-50
2023/01/15 00:11:48;;;;;;;24.35;15.80;;;23.30;99.90;;;;;;4956623;29;20061;-50
2023/01/15 00:14:14;;;;;;;21.27;14.38;;;23.30;99.90;;;;;;4956624;29;20023;-50
2023/01/15 00:16:40;;;;;;;22.55;14.73;;;23.30;99.90;;;;;;4956462;29;20026;-51
2023/01/15 00:19:09;;;;;;;20.40;14.80;;;23.20;99.90;;;;;;4956489;29;20066;-51
2023/01/15 00:21:35;;;;;;;20.10;15.10;;;23.30;99.90;;;;;;4956180;29;20442;-53
2023/01/15 00:29:32;;;;;;;23.48;15.20;;;23.20;99.90;;;;;;4942413;29;20093;-52
2023/01/15 00:32:03;;;;;;;23.67;15.15;;;23.20;99.90;;;;;;4939541;29;20476;-53
2023/01/15 00:34:29;;;;;;;22.42;14.55;;;23.20;99.90;;;;;;4939312;29;20117;-52
2023/01/15 00:36:56;;;;;;;22.52;14.18;;;23.20;99.90;;;;;;4956493;29;20497;-52
2023/01/15 00:39:23;;;;;;;19.30;13.32;;;23.20;99.90;;;;;;4956272;29;20383;-50
2023/01/15 00:41:49;;;;;;;19.67;13.85;;;23.20;99.90;;;;;;4956088;29;20368;-51
2023/01/15 00:44:15;;;;;;;23.27;14.52;;;23.10;99.90;;;;;;4956137;29;20033;-51
2023/01/15 00:46:41;;;;;;;21.27;13.90;;;23.10;99.90;;;;;;4955825;29;20038;-52
2023/01/15 00:49:07;;;;;;;23.92;14.43;;;23.10;99.90;;;;;;4956061;29;20481;-52
2023/01/15 00:51:33;;;;;;;21.35;13.38;;;23.10;99.90;;;;;;4955852;29;20027;-52
2023/01/15 00:54:00;;;;;;;21.65;14.45;;;23.10;99.90;;;;;;4956385;29;20452;-53
2023/01/15 00:56:26;;;;;;;20.15;13.95;;;23.00;99.90;;;;;;4955995;29;20031;-54
2023/01/15 00:58:52;;;;;;;22.48;14.20;;;23.10;99.90;;;;;;4938429;29;20034;-52
2023/01/15 01:01:18;;;;;;;23.63;14.82;;;23.00;99.90;;;;;;4967881;23;20142;-55
2023/01/15 01:03:47;;;;;;;17.92;12.77;;;23.00;99.90;;;;;;4955839;29;20028;-57
2023/01/15 01:06:14;;;;;;;18.02;12.70;;;23.00;99.90;;;;;;4955048;29;20566;-56
2023/01/15 01:08:40;;;;;;;24.75;13.70;;;23.00;99.90;;;;;;4935860;29;20059;-56
2023/01/15 01:11:12;;;;;;;19.33;12.70;;;23.00;99.90;;;;;;4936399;29;20070;-57
2023/01/15 01:13:38;;;;;;;20.27;13.48;;;23.00;99.90;;;;;;4935476;29;20408;-56
2023/01/15 01:16:19;;;;;;;21.33;13.48;;;22.90;99.90;;;;;;4934771;29;20024;-57
2023/01/15 01:18:45;;;;;;;23.65;12.85;;;22.90;99.90;;;;;;4934755;29;20044;-56
2023/01/15 01:21:11;;;;;;;19.02;12.07;;;22.90;99.90;;;;;;4934865;29;20114;-57
2023/01/15 01:23:37;;;;;;;20.38;14.25;;;22.90;99.90;;;;;;4934646;29;20024;-56
2023/01/15 01:26:02;;;;;;;17.33;12.35;;;22.90;99.90;;;;;;4935169;29;20039;-57
2023/01/15 01:28:28;;;;;;;20.00;12.75;;;22.80;99.90;;;;;;4936543;29;20086;-57
2023/01/15 01:30:54;;;;;;;18.60;12.77;;;22.80;99.90;;;;;;4935115;29;20032;-57
2023/01/15 01:33:20;;;;;;;19.13;10.93;;;22.80;99.90;;;;;;4935851;29;20031;-57
2023/01/15 01:35:49;;;;;;;17.98;11.95;;;22.80;99.90;;;;;;4934498;29;20044;-56
2023/01/15 01:38:15;;;;;;;16.85;10.23;;;22.80;99.90;;;;;;4934145;29;20034;-56
2023/01/15 01:40:42;;;;;;;16.95;11.77;;;22.80;99.90;;;;;;4934096;29;20539;-56
2023/01/15 01:43:20;;;;;;;17.00;12.23;;;22.70;99.90;;;;;;4928766;29;20082;-56
2023/01/15 01:45:46;;;;;;;18.70;11.57;;;22.70;99.90;;;;;;4931697;29;20032;-57
2023/01/15 01:48:12;;;;;;;16.65;11.52;;;22.70;99.90;;;;;;4933751;29;20107;-57
2023/01/15 01:50:39;;;;;;;16.97;11.33;;;22.70;99.90;;;;;;4935116;29;20027;-56
2023/01/15 01:53:14;;;;;;;15.60;10.90;;;22.70;99.90;;;;;;4935845;29;20020;-56
2023/01/15 01:55:40;;;;;;;16.90;11.25;;;22.70;99.90;;;;;;4935862;29;20082;-56
2023/01/15 01:58:08;;;;;;;17.10;11.32;;;22.60;99.90;;;;;;4935738;29;20035;-56
2023/01/15 02:00:37;;;;;;;19.27;10.98;;;22.60;99.90;;;;;;4958213;23;20047;-60
2023/01/15 02:03:05;;;;;;;17.00;10.93;;;22.60;99.90;;;;;;4937451;29;20039;-60
2023/01/15 02:05:36;;;;;;;14.35;10.70;;;22.60;99.90;;;;;;4955000;29;20031;-60
2023/01/15 02:08:01;;;;;;;16.85;10.65;;;22.60;99.90;;;;;;4954686;29;20023;-61
2023/01/15 02:10:28;;;;;;;17.27;10.55;;;22.60;99.90;;;;;;4954636;29;20133;-60
2023/01/15 02:13:34;;;;;;;16.23;11.32;;;22.60;99.90;;;;;;4949600;29;20028;-59
2023/01/15 02:16:24;;;;;;;16.13;10.30;;;22.50;99.90;;;;;;4951223;29;20039;-59
2023/01/15 02:18:53;;;;;;;17.48;10.98;;;22.50;99.90;;;;;;4953401;29;20614;-59
2023/01/15 02:21:29;;;;;;;16.30;10.88;;;22.50;99.90;;;;;;4953959;29;20027;-59
2023/01/15 02:24:35;;;;;;;14.20;10.82;;;22.50;99.90;;;;;;4954806;29;20024;-60
2023/01/15 02:27:27;;;;;;;12.30;9.20;;;22.50;99.90;;;;;;4954961;29;20126;-60
2023/01/15 02:30:11;;;;;;;14.85;10.63;;;22.40;99.90;;;;;;4950339;28;20039;-59
2023/01/15 02:32:42;;;;;;;16.98;11.40;;;22.50;99.90;;;;;;4954495;29;20034;-58
2023/01/15 02:35:27;;;;;;;13.77;10.13;;;22.40;99.90;;;;;;4954639;29;20019;-60
2023/01/15 02:37:58;;;;;;;14.95;10.20;;;22.40;99.90;;;;;;4954537;29;20038;-59
2023/01/15 02:40:25;;;;;;;17.00;9.85;;;22.40;99.90;;;;;;4954499;29;20026;-59
2023/01/15 02:42:53;;;;;;;16.25;9.73;;;22.40;99.90;;;;;;4954519;29;20054;-60
2023/01/15 02:45:30;;;;;;;13.98;9.88;;;22.40;99.90;;;;;;4954303;29;20035;-60
2023/01/15 02:48:03;;;;;;;13.45;9.65;;;22.40;99.90;;;;;;4954386;29;20558;-60
2023/01/15 02:50:34;;;;;;;12.68;9.32;;;22.30;99.90;;;;;;4954216;29;20542;-59
2023/01/15 02:53:04;;;;;;;12.70;9.50;;;22.30;99.90;;;;;;4952908;28;20472;-58
2023/01/15 02:55:37;;;;;;;13.98;9.70;;;22.30;99.90;;;;;;4954487;29;20436;-59
2023/01/15 02:58:08;;;;;;;15.15;9.93;;;22.30;99.90;;;;;;4954412;29;20034;-60
2023/01/15 03:00:40;;;;;;;13.43;9.35;;;22.30;99.90;;;;;;4954539;29;20389;-59
2023/01/15 03:03:37;;;;;;;11.77;9.05;;;22.30;99.90;;;;;;4954341;29;20019;-59
2023/01/15 03:06:33;;;;;;;15.88;9.68;;;22.20;99.90;;;;;;4954286;29;20488;-59
2023/01/15 03:09:00;;;;;;;16.15;10.75;;;22.30;99.90;;;;;;4940400;29;20078;-60
2023/01/15 03:11:26;;;;;;;13.45;9.32;;;22.20;99.90;;;;;;4954199;29;20042;-60
2023/01/15 03:14:00;;;;;;;14.73;9.48;;;22.20;99.90;;;;;;4954160;29;20023;-60
2023/01/15 03:16:36;;;;;;;13.65;9.05;;;22.10;99.90;;;;;;4936904;29;20054;-59
2023/01/15 03:19:05;;;;;;;14.55;9.43;;;22.20;99.90;;;;;;4954479;29;20035;-60
2023/01/15 03:21:58;;;;;;;14.07;8.68;;;22.10;99.90;;;;;;4954089;29;20494;-60
2023/01/15 03:24:46;;;;;;;14.63;9.32;;;22.10;99.90;;;;;;4953893;29;20069;-60
2023/01/15 03:27:12;;;;;;;15.27;9.32;;;22.10;99.90;;;;;;4940417;29;20054;-60
2023/01/15 03:29:42;;;;;;;14.50;9.50;;;22.10;99.90;;;;;;4953995;29;20027;-61
2023/01/15 03:32:08;;;;;;;13.15;8.50;;;22.10;99.90;;;;;;4953879;29;20020;-60
2023/01/15 03:34:46;;;;;;;15.40;9.05;;;22.10;99.90;;;;;;4954089;28;20053;-60
2023/01/15 03:37:13;;;;;;;12.40;8.73;;;22.10;99.90;;;;;;4954015;29;20027;-60
2023/01/15 03:39:40;;;;;;;11.18;7.95;;;22.10;99.90;;;;;;4953927;28;20027;-60
2023/01/15 03:42:18;;;;;;;15.77;10.32;;;22.00;99.90;;;;;;4957860;29;20079;-59
2023/01/15 03:45:08;;;;;;;11.98;8.40;;;22.00;99.90;;;;;;4957506;29;20090;-60
2023/01/15 03:48:01;;;;;;;13.32;9.48;;;22.00;99.90;;;;;;4957812;29;20032;-60
2023/01/15 03:50:39;;;;;;;12.82;8.80;;;21.90;99.90;;;;;;4957507;29;20024;-61
2023/01/15 03:53:14;;;;;;;15.05;9.88;;;22.00;99.90;;;;;;4957611;29;20484;-61
2023/01/15 03:55:58;;;;;;;13.00;8.25;;;21.90;99.90;;;;;;4957325;29;20027;-60
2023/01/15 03:58:37;;;;;;;11.93;9.13;;;21.90;99.90;;;;;;4957281;29;20510;-60
2023/01/15 04:01:04;;;;;;;10.75;7.90;;;21.90;99.90;;;;;;4957592;29;20055;-60
2023/01/15 04:03:33;;;;;;;11.40;8.73;;;21.90;99.90;;;;;;4957251;29;20020;-60
2023/01/15 04:06:01;;;;;;;12.80;8.85;;;21.90;99.90;;;;;;4957203;29;20051;-60
2023/01/15 04:08:30;;;;;;;12.55;8.18;;;21.90;99.90;;;;;;4957265;29;20030;-60
2023/01/15 04:10:58;;;;;;;11.65;7.97;;;21.80;99.90;;;;;;4957118;29;20185;-60
2023/01/15 04:13:24;;;;;;;12.05;8.65;;;21.90;99.90;;;;;;4957153;29;20077;-60
2023/01/15 04:15:51;;;;;;;11.80;8.20;;;21.80;99.90;;;;;;4957045;29;20031;-60
2023/01/15 04:18:17;;;;;;;12.40;8.20;;;21.90;99.90;;;;;;4955653;29;20376;-60
2023/01/15 04:20:44;;;;;;;15.50;8.55;;;21.90;99.90;;;;;;4956942;29;20513;-60
2023/01/15 04:23:10;;;;;;;10.60;7.93;;;21.80;99.90;;;;;;4957162;29;20023;-59
2023/01/15 04:25:36;;;;;;;11.77;8.50;;;21.80;99.90;;;;;;4957130;29;20039;-58
2023/01/15 04:28:02;;;;;;;12.18;7.85;;;21.80;99.90;;;;;;4956858;29;20073;-60
2023/01/15 04:30:28;;;;;;;12.35;8.02;;;21.80;99.90;;;;;;4956770;29;20055;-60
2023/01/15 04:32:53;;;;;;;15.65;8.13;;;21.80;99.90;;;;;;4956729;29;20030;-60
2023/01/15 04:35:19;;;;;;;11.73;8.10;;;21.80;99.90;;;;;;4956752;29;20094;-59
2023/01/15 04:37:45;;;;;;;13.98;8.25;;;21.80;99.90;;;;;;4956810;29;20071;-60
2023/01/15 04:44:05;;;;;;;10.95;6.85;;;21.70;99.90;;;;;;4956600;29;20027;-60
2023/01/15 04:45:45;;;;;;;11.98;8.05;;;21.70;99.90;;;;;;4956393;29;20393;-62
2023/01/15 04:48:11;;;;;;;11.32;8.20;;;21.70;99.90;;;;;;4941756;29;20035;-60
2023/01/15 04:50:38;;;;;;;12.38;8.07;;;21.70;99.90;;;;;;4940950;29;20384;-62
2023/01/15 04:53:04;;;;;;;12.43;7.95;;;21.70;99.90;;;;;;4955196;28;20020;-62
2023/01/15 04:55:30;;;;;;;10.82;7.07;;;21.60;99.90;;;;;;4956050;29;20469;-61
2023/01/15 04:57:56;;;;;;;10.27;7.07;;;21.60;99.90;;;;;;4956164;29;20031;-62
2023/01/15 05:00:25;;;;;;;12.75;8.00;;;21.60;99.90;;;;;;4956134;29;20044;-60
2023/01/15 05:02:50;;;;;;;9.48;7.05;;;21.60;99.90;;;;;;4955948;29;20030;-60
2023/01/15 05:05:16;;;;;;;12.00;8.13;;;21.60;99.90;;;;;;4955913;29;20484;-60
2023/01/15 05:07:42;;;;;;;9.82;6.97;;;21.50;99.90;;;;;;4955733;29;20031;-60
2023/01/15 05:10:08;;;;;;;11.23;7.90;;;21.50;99.90;;;;;;4955847;29;20023;-61
2023/01/15 05:12:34;;;;;;;9.32;6.45;;;21.50;99.90;;;;;;4955791;29;20034;-61
2023/01/15 05:15:00;;;;;;;13.68;7.80;;;21.50;99.90;;;;;;4955657;29;20480;-61
2023/01/15 05:17:25;;;;;;;11.05;7.22;;;21.50;99.90;;;;;;4955572;29;20475;-61
2023/01/15 05:19:51;;;;;;;10.35;7.57;;;21.50;99.90;;;;;;4955566;29;20031;-60
2023/01/15 05:22:17;;;;;;;11.68;6.97;;;21.40;99.90;;;;;;4955737;29;20407;-60
2023/01/15 05:24:43;;;;;;;12.23;8.65;;;21.50;99.90;;;;;;4938381;29;20480;-61
2023/01/15 05:27:08;;;;;;;13.00;8.00;;;21.50;99.90;;;;;;4955405;29;20325;-59
2023/01/15 05:29:35;;;;;;;10.98;7.75;;;21.50;99.90;;;;;;4955382;29;20027;-60
2023/01/15 05:32:00;;;;;;;10.10;7.03;;;21.50;99.90;;;;;;4954223;28;20118;-58
2023/01/15 05:34:26;;;;;;;10.88;7.25;;;21.50;99.90;;;;;;4955303;29;20101;-58
2023/01/15 05:36:52;;;;;;;10.88;8.02;;;21.50;99.90;;;;;;4955147;29;20031;-59
2023/01/15 05:39:17;;;;;;;10.32;7.97;;;21.50;99.90;;;;;;4955132;29;20030;-58
2023/01/15 05:41:49;;;;;;;11.20;7.40;;;21.40;99.90;;;;;;4955463;29;20102;-58
2023/01/15 05:44:27;;;;;;;11.70;8.77;;;21.40;99.90;;;;;;4955122;29;20135;-59
2023/01/15 05:46:54;;;;;;;;;;;21.40;99.90;;;;;;4948115;29;20032;-58
2023/01/15 05:49:23;;;;;;;11.52;7.65;;;21.40;99.90;;;;;;4949634;29;19907;-59
2023/01/15 05:51:50;;;;;;;10.82;7.47;;;21.40;99.90;;;;;;4954869;29;20074;-59
2023/01/15 05:54:22;;;;;;;11.02;7.30;;;21.40;99.90;;;;;;4954900;29;20476;-58
2023/01/15 05:56:47;;;;;;;13.68;8.52;;;21.40;99.90;;;;;;4955031;29;20077;-58
2023/01/15 05:59:16;;;;;;;13.85;9.50;;;21.30;99.90;;;;;;4955174;29;20473;-59
2023/01/15 06:01:42;;;;;;;11.02;7.95;;;21.30;99.90;;;;;;4954813;29;20043;-59
2023/01/15 06:04:10;;;;;;;14.98;9.45;;;21.30;99.90;;;;;;4954679;28;20094;-60
2023/01/15 06:06:36;;;;;;;14.23;9.57;;;21.30;99.90;;;;;;4954715;29;20039;-60
2023/01/15 06:09:03;;;;;;;14.98;10.32;;;21.30;99.90;;;;;;4954719;29;20023;-60
2023/01/15 06:11:29;;;;;;;15.88;11.23;;;21.30;99.90;;;;;;4954521;29;20023;-59
2023/01/15 06:13:55;;;;;;;17.98;11.40;;;21.30;99.90;;;;;;4954338;29;20417;-59
2023/01/15 06:16:21;;;;;;;17.60;11.60;;;21.30;99.90;;;;;;4954783;29;20479;-59
2023/01/15 06:18:47;;;;;;;22.17;13.93;;;21.30;99.90;;;;;;4954216;29;20054;-59
2023/01/15 06:21:13;;;;;;;16.52;11.55;;;21.30;99.90;;;;;;4954856;29;20066;-60
2023/01/15 06:23:40;;;;;;;18.60;11.70;;;21.30;99.90;;;;;;4954509;29;20019;-59
2023/01/15 06:26:15;;;;;;;22.40;14.38;;;21.20;99.90;;;;;;4954246;29;20039;-59
2023/01/15 06:28:41;;;;;;;19.80;12.95;;;21.20;99.90;;;;;;4954223;29;20023;-59
2023/01/15 06:31:09;;;;;;;18.15;12.10;;;21.20;99.90;;;;;;4954353;29;20035;-60
2023/01/15 06:33:34;;;;;;;20.38;13.93;;;21.20;99.90;;;;;;4954295;29;20387;-60
2023/01/15 06:36:05;;;;;;;23.58;15.32;;;21.20;99.90;;;;;;4954408;29;20106;-60
2023/01/15 06:38:31;;;;;;;21.92;14.90;;;21.20;99.90;;;;;;4953985;29;20101;-59
2023/01/15 06:40:58;;;;;;;27.15;17.50;;;21.20;99.90;;;;;;4954307;29;20472;-59
2023/01/15 06:48:53;;;;;;;24.52;15.88;;;21.20;99.90;;;;;;4941425;29;20062;-60
2023/01/15 06:51:20;;;;;;;26.77;17.17;;;21.20;99.90;;;;;;4953951;29;20031;-58
2023/01/15 06:53:46;;;;;;;29.05;19.20;;;21.20;99.90;;;;;;4954330;29;20020;-57
2023/01/15 06:56:15;;;;;;;26.20;17.80;;;21.20;99.90;;;;;;4954183;29;20103;-58
2023/01/15 06:58:42;;;;;;;26.60;17.02;;;21.20;99.90;;;;;;4954087;29;20041;-58
2023/01/15 07:01:14;;;;;;;24.10;15.90;;;21.20;99.90;;;;;;4953806;29;20047;-58
2023/01/15 07:03:40;;;;;;;28.75;19.13;;;21.20;99.90;;;;;;4953481;29;20396;-58
2023/01/15 07:06:11;;;;;;;28.58;19.30;;;21.20;99.90;;;;;;4954215;29;20035;-58
2023/01/15 07:08:38;;;;;;;28.30;18.67;;;21.20;99.90;;;;;;4953616;29;20058;-57
2023/01/15 07:11:08;;;;;;;25.23;18.02;;;21.20;99.90;;;;;;4953732;29;20019;-57
2023/01/15 07:13:35;;;;;;;26.25;18.10;;;21.20;99.90;;;;;;4953802;29;20087;-57
2023/01/15 07:16:02;;;;;;;27.77;20.08;;;21.20;99.90;;;;;;4955969;28;20026;-56
2023/01/15 07:18:29;;;;;;;26.75;18.75;;;21.20;99.90;;;;;;4957843;29;20042;-58
2023/01/15 07:20:56;;;;;;;26.65;18.17;;;21.20;99.90;;;;;;4957864;29;20078;-59
2023/01/15 07:23:23;;;;;;;24.15;16.95;;;21.20;99.90;;;;;;4940136;29;20023;-59
2023/01/15 07:25:51;;;;;;;28.20;18.45;;;21.20;99.90;;;;;;4957646;29;20476;-59
2023/01/15 07:28:17;;;;;;;28.33;18.15;;;21.10;99.90;;;;;;4957954;29;20024;-59
2023/01/15 07:30:43;;;;;;;24.33;17.58;;;21.20;99.90;;;;;;4957208;29;20025;-58
2023/01/15 07:33:09;;;;;;;30.60;17.77;;;21.20;99.90;;;;;;4957514;29;20038;-59
2023/01/15 07:35:35;;;;;;;30.48;18.55;;;21.20;99.90;;;;;;4957343;29;20019;-57
2023/01/15 07:38:02;;;;;;;29.33;19.60;;;21.20;99.90;;;;;;4957278;29;20023;-59
2023/01/15 07:40:28;;;;;;;24.83;17.20;;;21.20;99.90;;;;;;4957098;29;20070;-57
2023/01/15 07:51:09;;;;;;;24.10;16.90;;;21.20;99.90;;;;;;4933030;29;20070;-57
2023/01/15 07:53:34;;;;;;;25.23;16.80;;;21.20;99.90;;;;;;4957238;29;20071;-56
2023/01/15 07:56:00;;;;;;;25.80;17.55;;;21.20;99.90;;;;;;4957136;29;20027;-57
2023/01/15 07:58:26;;;;;;;26.15;17.38;;;21.20;99.90;;;;;;4956766;29;20397;-56
2023/01/15 08:00:52;;;;;;;26.92;17.65;;;21.30;99.90;;;;;;4956812;29;20039;-57
2023/01/15 08:03:17;;;;;;;28.17;18.17;;;21.30;99.90;;;;;;4957251;29;20110;-56
2023/01/15 08:05:43;;;;;;;23.65;17.25;;;21.30;99.90;;;;;;4956382;29;20035;-56
2023/01/15 08:08:16;;;;;;;24.63;17.20;;;21.30;99.90;;;;;;4956952;29;20031;-56
2023/01/15 08:16:12;;;;;;;22.55;16.10;;;21.40;99.90;;;;;;4957169;29;20031;-57
2023/01/15 08:18:38;;;;;;;26.42;17.35;;;21.40;99.90;;;;;;4956731;29;20023;-57
2023/01/15 08:21:04;;;;;;;21.95;16.05;;;21.50;99.90;;;;;;4956806;29;20027;-57
2023/01/15 08:23:30;;;;;;;22.75;15.55;;;21.50;99.90;;;;;;4956685;29;20097;-56
2023/01/15 08:25:59;;;;;;;23.67;15.70;;;21.50;99.90;;;;;;4956304;28;20476;-57
2023/01/15 08:28:25;;;;;;;21.38;14.35;;;21.50;99.90;;;;;;4955432;29;20054;-56
2023/01/15 08:30:51;;;;;;;23.42;15.30;;;21.50;99.90;;;;;;4956678;29;20023;-56
2023/01/15 08:33:17;;;;;;;22.67;15.52;;;21.60;99.90;;;;;;4956504;29;20383;-57
2023/01/15 08:35:42;;;;;;;24.20;16.15;;;21.60;99.90;;;;;;4955131;28;20110;-57
2023/01/15 08:38:08;;;;;;;24.83;14.55;;;21.70;99.90;;;;;;4956136;29;20028;-57
2023/01/15 08:40:57;;;;;;;18.98;13.68;;;21.70;99.90;;;;;;4956256;29;20024;-56
2023/01/15 08:43:21;;;;;;;21.85;13.80;;;21.70;99.90;;;;;;4956287;29;20027;-57
2023/01/15 08:45:46;;;;;;;22.20;14.95;;;21.80;99.90;;;;;;4954852;29;20415;-57
2023/01/15 08:48:12;;;;;;;24.15;15.05;;;21.80;99.90;;;;;;4955587;29;20027;-57
2023/01/15 08:50:38;;;;;;;20.90;14.52;;;21.80;99.90;;;;;;4955662;29;20028;-56
2023/01/15 08:53:04;;;;;;;23.95;13.68;;;21.90;99.90;;;;;;4956068;29;20036;-56
2023/01/15 08:55:29;;;;;;;17.50;12.30;;;21.80;99.90;;;;;;4942851;29;20080;-57
2023/01/15 08:57:55;;;;;;;19.58;13.68;;;21.90;99.90;;;;;;4956133;29;20088;-57
2023/01/15 09:00:21;;;;;;;36.45;13.93;;;21.90;99.90;;;;;;4955766;29;20047;-56
2023/01/15 09:02:46;;;;;;;19.88;13.05;;;21.90;99.90;;;;;;4955607;29;20027;-57
2023/01/15 09:05:12;;;;;;;20.63;13.38;;;22.00;99.90;;;;;;4954285;29;20047;-56
2023/01/15 09:07:38;;;;;;;22.75;13.60;;;22.00;99.90;;;;;;4953018;29;20055;-57
2023/01/15 09:10:04;;;;;;;17.88;12.32;;;22.00;99.90;;;;;;4954679;29;20031;-57
2023/01/15 09:12:30;;;;;;;16.08;11.88;;;22.00;99.90;;;;;;4954233;29;20769;-57
2023/01/15 09:14:56;;;;;;;18.60;11.63;;;22.10;99.90;;;;;;4954663;29;20122;-57
2023/01/15 09:17:22;;;;;;;24.63;12.18;;;22.10;99.90;;;;;;4955443;29;20027;-57
2023/01/15 09:19:47;;;;;;;18.35;11.75;;;22.10;99.90;;;;;;4955123;29;20106;-57
2023/01/15 09:22:13;;;;;;;20.27;11.98;;;22.20;99.90;;;;;;4955085;29;20078;-57
2023/01/15 09:24:39;;;;;;;20.75;10.85;;;22.20;99.90;;;;;;4954861;29;20070;-57
2023/01/15 09:27:05;;;;;;;19.02;12.00;;;22.20;99.90;;;;;;4950869;29;20372;-59
2023/01/15 09:29:30;;;;;;;18.88;9.98;;;22.30;99.90;;;;;;4922640;29;20033;-58
2023/01/15 09:31:56;;;;;;;14.18;9.02;;;22.30;99.90;;;;;;4954763;29;20178;-56
2023/01/15 09:34:22;;;;;;;13.40;8.57;;;22.30;99.90;;;;;;4954909;29;20417;-57
2023/01/15 09:36:49;;;;;;;15.73;8.15;;;22.30;99.90;;;;;;4953048;29;20132;-57
2023/01/15 09:39:15;;;;;;;13.70;8.13;;;22.40;99.90;;;;;;4953998;28;20027;-57
2023/01/15 09:42:06;;;;;;;6.38;4.15;;;22.40;99.90;;;;;;4954270;29;20031;-59
2023/01/15 09:44:47;;;;;;;3.60;2.70;;;22.40;99.90;;;;;;4954352;29;20023;-60
2023/01/15 09:47:29;;;;;;;5.85;3.05;;;22.40;99.90;;;;;;4954392;29;20071;-57
2023/01/15 09:50:32;;;;;;;4.78;3.40;;;22.40;99.90;;;;;;4954225;29;20019;-57
2023/01/15 09:53:31;;;;;;;6.47;2.60;;;22.40;99.90;;;;;;4953839;29;20075;-57
2023/01/15 09:55:59;;;;;;;7.93;3.30;;;22.40;99.90;;;;;;4954086;29;20019;-56
2023/01/15 09:58:43;;;;;;;6.22;3.70;;;22.40;99.90;;;;;;4954206;29;20380;-59
2023/01/15 10:01:15;;;;;;;5.32;3.13;;;22.40;99.90;;;;;;4953710;29;20055;-59
2023/01/15 10:03:46;;;;;;;4.68;3.38;;;22.50;99.90;;;;;;4953794;29;20020;-57
2023/01/15 10:06:19;;;;;;;5.30;3.15;;;22.50;99.90;;;;;;4953825;29;20484;-59
2023/01/15 10:08:47;;;;;;;4.80;3.15;;;22.50;99.90;;;;;;4953752;29;20034;-58
2023/01/15 10:11:20;;;;;;;9.15;3.75;;;22.60;99.90;;;;;;4953671;29;20051;-57
2023/01/15 10:14:04;;;;;;;11.10;3.47;;;22.60;99.90;;;;;;4953632;29;20015;-58
2023/01/15 10:16:32;;;;;;;15.98;3.58;;;22.60;99.90;;;;;;4953607;29;20051;-57
2023/01/15 10:19:01;;;;;;;10.88;3.58;;;22.70;99.90;;;;;;4936419;29;20074;-57
2023/01/15 10:21:32;;;;;;;19.05;3.88;;;22.70;99.90;;;;;;4953884;29;20027;-57
2023/01/15 10:24:18;;;;;;;11.07;3.50;;;22.80;99.90;;;;;;4952372;29;20534;-53
2023/01/15 10:26:56;;;;;;;10.13;3.72;;;22.80;99.90;;;;;;4953170;29;20035;-58
2023/01/15 10:29:42;;;;;;;8.45;3.38;;;22.90;99.90;;;;;;4953548;29;20086;-56
2023/01/15 10:32:35;;;;;;;6.03;3.35;;;22.90;99.90;;;;;;4953557;29;20024;-56
2023/01/15 10:35:39;;;;;;;11.75;3.90;;;23.00;99.90;;;;;;4932580;29;20034;-55
2023/01/15 10:38:32;;;;;;;8.95;3.58;;;23.10;99.90;;;;;;4953965;29;20070;-56
2023/01/15 10:41:13;;;;;;;8.02;3.58;;;23.20;99.90;;;;;;4941460;29;20024;-55
2023/01/15 10:43:49;;;;;;;5.80;3.33;;;23.20;99.90;;;;;;4954066;29;20020;-56
2023/01/15 10:46:25;;;;;;;8.98;3.38;;;23.20;99.90;;;;;;4954026;29;20023;-56
2023/01/15 10:48:56;;;;;;;12.40;3.72;;;23.30;99.90;;;;;;4952834;29;20047;-56
2023/01/15 10:51:29;;;;;;;5.63;3.75;;;23.40;99.90;;;;;;4953467;29;20452;-55
2023/01/15 10:54:30;;;;;;;7.90;3.53;;;23.40;99.90;;;;;;4953893;29;20023;-56
2023/01/15 10:57:18;;;;;;;6.13;3.13;;;23.40;99.90;;;;;;4925346;29;20044;-56
2023/01/15 10:59:55;;;;;;;9.25;3.55;;;23.50;99.90;;;;;;4954041;29;20047;-56
2023/01/15 11:02:38;;;;;;;8.20;3.78;;;23.60;99.90;;;;;;4949650;29;20035;-57
2023/01/15 11:05:05;;;;;;;13.82;3.17;;;23.60;99.90;;;;;;4952817;29;20039;-55
2023/01/15 11:07:45;;;;;;;10.30;3.75;;;23.70;99.90;;;;;;4953501;29;20047;-56
2023/01/15 11:10:14;;;;;;;7.03;3.97;;;23.70;99.90;;;;;;4923562;29;20043;-56
2023/01/15 11:21:19;;;;;;;4.43;3.20;;;23.80;99.90;;;;;;4925048;29;20465;-56
2023/01/15 11:23:47;;;;;;;5.82;3.17;;;23.90;99.90;;;;;;4916592;29;20028;-56
2023/01/15 11:26:28;;;;;;;8.27;3.45;;;23.90;99.90;;;;;;4936706;29;20516;-56
2023/01/15 11:28:55;;;;;;;8.60;4.07;;;23.90;99.90;;;;;;4934863;29;20030;-56
2023/01/15 11:31:21;;;;;;;4.40;3.73;;;23.90;99.90;;;;;;4920815;29;20425;-55
2023/01/15 11:34:16;;;;;;;9.35;3.65;;;24.00;99.90;;;;;;4921166;29;20255;-57
2023/01/15 11:36:42;;;;;;;7.53;3.75;;;24.00;99.90;;;;;;4932232;29;20447;-56
2023/01/15 11:39:26;;;;;;;5.20;2.80;;;24.10;99.90;;;;;;4916831;29;20068;-56
2023/01/15 11:51:01;;;;;;;8.00;4.38;;;24.20;99.90;;;;;;4917944;29;20038;-57
2023/01/15 11:53:31;;;;;;;7.78;3.58;;;24.20;99.90;;;;;;4934860;29;20113;-57
2023/01/15 11:56:05;;;;;;;6.43;3.85;;;24.30;99.90;;;;;;4932276;29;20032;-57
2023/01/15 11:58:38;;;;;;;6.50;3.92;;;24.30;99.90;;;;;;4917905;29;20028;-57
2023/01/15 12:01:04;;;;;;;8.00;3.92;;;24.30;99.90;;;;;;4902577;29;20080;-57
2023/01/15 12:03:33;;;;;;;6.05;3.95;;;24.30;99.90;;;;;;4924639;29;20032;-56
2023/01/15 12:06:04;;;;;;;5.30;3.90;;;24.40;99.90;;;;;;4922620;29;20047;-56
2023/01/15 12:08:30;;;;;;;7.35;3.70;;;24.40;99.90;;;;;;4922621;29;20071;-57
2023/01/15 12:11:23;;;;;;;6.00;3.63;;;24.40;99.90;;;;;;4923112;29;20421;-57
2023/01/15 12:14:15;;;;;;;10.38;3.67;;;24.40;99.90;;;;;;4923900;29;20024;-57
2023/01/15 12:17:05;;;;;;;5.78;3.38;;;24.50;99.90;;;;;;4908541;29;20123;-55
2023/01/15 12:19:51;;;;;;;6.90;3.88;;;24.50;99.90;;;;;;4934811;29;20031;-55
2023/01/15 12:22:43;;;;;;;7.03;3.90;;;24.60;99.90;;;;;;4936355;29;20031;-57
2023/01/15 12:25:18;;;;;;;7.68;3.85;;;24.60;99.90;;;;;;4923524;29;20028;-56
2023/01/15 12:28:06;;;;;;;8.30;3.80;;;24.70;99.90;;;;;;4920529;29;20032;-56
2023/01/15 12:30:53;;;;;;;5.60;3.60;;;24.70;99.90;;;;;;4925893;29;20471;-56
2023/01/15 12:33:47;;;;;;;6.70;4.50;;;24.70;99.90;;;;;;4920125;29;20381;-57
2023/01/15 12:36:26;;;;;;;5.63;3.90;;;24.70;99.90;;;;;;4929095;29;20034;-56
2023/01/15 12:39:24;;;;;;;9.70;4.18;;;24.70;99.90;;;;;;4919772;29;20068;-57
2023/01/15 12:45:04;;;;;;;6.35;3.75;;;24.80;99.90;;;;;;4927720;29;20030;-57
2023/01/15 12:47:36;;;;;;;7.50;3.95;;;24.80;99.90;;;;;;4917973;29;20032;-56
2023/01/15 12:50:33;;;;;;;7.97;4.47;;;24.80;99.90;;;;;;4926371;29;20035;-56
2023/01/15 12:53:18;;;;;;;6.45;3.90;;;24.90;99.90;;;;;;4922838;29;20036;-57
2023/01/15 12:56:12;;;;;;;7.18;4.00;;;24.90;99.90;;;;;;4925911;29;20035;-57
2023/01/15 12:58:52;;;;;;;9.10;4.60;;;24.90;99.90;;;;;;4927608;29;20047;-56
2023/01/15 13:01:37;;;;;;;14.23;4.63;;;24.90;99.90;;;;;;4917838;29;20565;-56
2023/01/15 13:04:34;;;;;;;7.38;4.80;;;24.90;99.90;;;;;;4930651;29;20028;-57
2023/01/15 13:07:34;;;;;;;9.85;5.25;;;25.00;99.90;;;;;;4923175;29;20039;-57
2023/01/15 13:09:59;;;;;;;10.40;4.70;;;25.00;99.90;;;;;;4927517;29;20119;-56
2023/01/15 13:12:27;;;;;;;12.07;5.55;;;25.00;99.90;;;;;;4923811;29;20441;-57
2023/01/15 13:14:53;;;;;;;10.65;4.63;;;25.00;99.90;;;;;;4925020;29;20024;-58
2023/01/15 13:17:21;;;;;;;9.48;4.65;;;25.00;99.90;;;;;;4920595;29;20516;-57
2023/01/15 13:20:16;;;;;;;8.10;3.63;;;25.10;99.90;;;;;;4940510;29;20027;-57
2023/01/15 13:23:16;;;;;;;7.95;4.57;;;25.10;99.90;;;;;;4927501;29;20110;-58
2023/01/15 13:26:00;;;;;;;15.18;6.93;;;25.10;99.90;;;;;;4929504;29;20044;-60
2023/01/15 13:28:51;;;;;;;26.27;10.95;;;25.10;99.90;;;;;;4926757;29;20077;-59
2023/01/15 13:31:56;;;;;;;29.38;12.02;;;25.20;99.90;;;;;;4919904;29;20087;-57
2023/01/15 13:34:58;;;;;;;31.63;11.90;;;25.20;99.90;;;;;;4923734;29;20031;-59
2023/01/15 13:37:30;;;;;;;18.23;9.00;;;25.20;99.90;;;;;;4922816;29;20485;-59
2023/01/15 13:40:17;;;;;;;19.77;8.73;;;25.20;99.90;;;;;;4928291;29;20043;-59
2023/01/15 13:42:47;;;;;;;;;;;25.30;99.90;;;;;;4930485;29;20517;-61
2023/01/15 13:45:39;;;;;;;18.92;8.25;;;25.30;99.90;;;;;;4931433;29;19911;-59
2023/01/15 13:48:14;;;;;;;17.40;9.00;;;25.30;99.90;;;;;;4912577;29;20031;-59
2023/01/15 13:51:01;;;;;;;19.33;8.88;;;25.30;99.90;;;;;;4934375;29;20135;-59